• Join FlightAware (Why Join?)
  • Login
  • US Flag 
09:59PM EDT


 

Airport Tracker/Info


-or-


 

Live Flight TrackerFlight Track Log ✈ SKW5208 ✈ 15-May-2012 ✈ KSTL - KIAH

Flight Track Log - Related Links

Times and Time Zones

All times are in EDT time to prevent confusion due to time zone crossing. See the SKW5208 flight status page for this flight to view local times or setup timezone preferences in your user account.

Time Position Orientation Groundspeed Altitude Reporting Facility
EDT Latitude Longitude Course Direction KTS MPH feet Rate Location/Type
02:56PM 38.6928 -90.3968 348° North  Level FlightAware Approximate
02:56PM 38.7667 -90.4167 206° Southwest 168 193 1,200  Level Gateway (St. Louis) TRACON
03:01PM 38.5297 -90.5669 199° South 295 339 10,800 2,040 Climbing FAA TRACON SMA TRACON (SMA)
03:02PM 38.4728 -90.5919 198° South 318 366 12,200 1,980 Climbing FAA TRACON SMA TRACON (SMA)
03:02PM 38.4194 -90.6139 198° South 330 380 13,500 2,040 Climbing FAA TRACON SMA TRACON (SMA)
03:03PM 38.3581 -90.6400 199° South 340 391 14,900 2,160 Climbing FAA TRACON SMA TRACON (SMA)
03:04PM 38.2950 -90.6675 200° South 349 402 16,400 2,040 Climbing FAA TRACON SMA TRACON (SMA)
03:04PM 38.2378 -90.6933 198° South 355 409 17,700 1,920 Climbing FAA TRACON SMA TRACON (SMA)
03:05PM 38.1717 -90.7208 199° South 363 418 19,000 1,920 Climbing FAA TRACON SMA TRACON (SMA)
03:06PM 38.1039 -90.7500 231° Southwest 372 428 20,300 1,920 Climbing FAA TRACON SMA TRACON (SMA)
03:06PM 38.0564 -90.8244 198° South 368 423 21,400 1,560 Climbing Kansas City Center
03:07PM 37.9639 -90.8633 199° South 382 440 22,800 1,320 Climbing Kansas City Center
03:08PM 37.8608 -90.9075 198° South 389 448 24,100 1,440 Climbing Kansas City Center
03:09PM 37.7517 -90.9522 199° South 401 461 25,700 1,500 Climbing Kansas City Center
03:10PM 37.6425 -90.9994 199° South 406 467 27,100 1,380 Climbing Kansas City Center
03:11PM 37.5333 -91.0464 198° South 411 473 28,500 1,200 Climbing Kansas City Center
03:13PM 37.3150 -91.1339 198° South 446 513 30,500 1,140 Climbing Memphis Center
03:14PM 37.2000 -91.1797 199° South 441 507 31,700 900 Climbing Memphis Center
03:15PM 37.0831 -91.2306 198° South 441 507 32,400 900 Climbing Memphis Center
03:16PM 36.9681 -91.2761 199° South 446 513 33,600 1,080 Climbing Memphis Center
03:17PM 36.8489 -91.3267 198° South 444 511 34,600 1,020 Climbing Memphis Center
03:18PM 36.7339 -91.3719 198° South 444 511 35,700 660 Climbing Memphis Center
03:19PM 36.6231 -91.4169 198° South 432 497 36,000 120 Climbing Memphis Center
03:20PM 36.5103 -91.4619 198° South 432 497 36,000  Level Memphis Center
03:21PM 36.4078 -91.5044 198° South 437 503 36,000 120 Level Memphis Center
03:22PM 36.2883 -91.5517 198° South 437 503 36,300 600 Climbing Memphis Center
03:23PM 36.1775 -91.5964 198° South 432 497 37,300 840 Climbing Memphis Center
03:24PM 36.0667 -91.6408 198° South 432 497 38,000 300 Climbing Memphis Center
03:25PM 35.9556 -91.6853 196° South 427 491 38,000  Level Memphis Center
03:26PM 35.8425 -91.7244 199° South 425 489 38,000  Level Memphis Center
03:27PM 35.7294 -91.7711 197° South 430 495 38,000  Level Memphis Center
03:28PM 35.6122 -91.8153 199° South 430 495 38,000  Level Memphis Center
03:29PM 35.4947 -91.8642 197° South 442 509 38,000  Level Memphis Center
03:30PM 35.3669 -91.9128 197° South 442 509 38,000  Level Memphis Center
03:31PM 35.2475 -91.9589 198° South 442 509 38,000  Level Memphis Center
03:32PM 35.1281 -92.0072 197° South 442 509 38,000  Level Memphis Center
03:33PM 35.0147 -92.0483 198° South 442 509 38,000  Level Memphis Center
03:34PM 34.8953 -92.0964 197° South 442 509 38,000  Level Memphis Center
03:35PM 34.7567 -92.1494 195° South 447 514 38,000  Level Memphis Center
03:36PM 34.6394 -92.1872 189° South 439 505 38,000  Level Memphis Center
03:37PM 34.5158 -92.2122 189° South 439 505 38,000  Level Memphis Center
03:38PM 34.3944 -92.2347 188° South 439 505 38,000  Level Memphis Center
03:39PM 34.2753 -92.2550 189° South 444 511 38,000  Level Memphis Center
03:41PM 34.0875 -92.2903 189° South 427 491 38,000  Level Fort Worth Center
03:42PM 33.9675 -92.3125 190° South 427 491 38,000  Level Fort Worth Center
03:43PM 33.8517 -92.3367 189° South 432 497 38,000  Level Fort Worth Center
03:44PM 33.7314 -92.3586 188° South 438 504 38,000  Level Fort Worth Center
03:45PM 33.6072 -92.3808 188° South 443 510 38,000  Level Fort Worth Center
03:46PM 33.4889 -92.4000 189° South 443 510 38,000  Level Fort Worth Center
03:47PM 33.3731 -92.4214 189° South 438 504 38,000  Level Fort Worth Center
03:48PM 33.2528 -92.4431 189° South 438 504 38,000  Level Fort Worth Center
03:49PM 33.1325 -92.4647 189° South 444 511 38,000  Level Fort Worth Center
03:50PM 33.0125 -92.4864 190° South 444 511 38,000  Level Fort Worth Center
03:51PM 32.8944 -92.5100 189° South 438 504 38,000  Level Fort Worth Center
03:53PM 32.6442 -92.5578 188° South 440 506 38,000  Level Houston Center
03:54PM 32.5356 -92.5764 191° South 440 506 38,000 -60 Level Houston Center
03:55PM 32.4189 -92.6022 186° South 440 506 37,900  Descending Houston Center
03:56PM 32.2978 -92.6183 191° South 435 501 38,000  Climbing Houston Center
03:57PM 32.1808 -92.6442 188° South 435 501 38,000  Level Houston Center
03:58PM 32.0639 -92.6625 196° South 430 495 38,000 -300 Level Houston Center
03:59PM 31.9511 -92.7006 218° Southwest 430 495 37,500 -540 Descending Houston Center
04:00PM 31.8606 -92.7850 220° Southwest 415 478 37,000 -600 Descending Houston Center
04:01PM 31.7744 -92.8694 220° Southwest 415 478 36,400 -540 Descending Houston Center
04:02PM 31.6903 -92.9514 219° Southwest 408 470 36,000 -240 Descending Houston Center
04:03PM 31.6039 -93.0331 221° Southwest 403 464 36,000  Level Houston Center
04:04PM 31.5217 -93.1172 218° Southwest 403 464 36,000  Level Houston Center
04:05PM 31.4375 -93.1936 220° Southwest 403 464 36,000  Level Houston Center
04:06PM 31.3467 -93.2822 215° Southwest 397 457 36,000  Level Houston Center
04:07PM 31.2772 -93.3394 196° South 403 464 36,000 -180 Level Houston Center
04:08PM 31.1639 -93.3786 198° South 385 443 35,700 -420 Descending Houston Center
04:09PM 31.0592 -93.4181 216° Southwest 396 456 35,200 -540 Descending Houston Center
04:10PM 30.9706 -93.4942 226° Southwest 396 456 34,700 -540 Descending Houston Center
04:11PM 30.8942 -93.5847 224° Southwest 396 456 34,200 -1,680 Descending Houston Center
04:12PM 30.8156 -93.6725 224° Southwest 396 456 31,400 -2,880 Descending Houston Center
04:13PM 30.7369 -93.7603 225° Southwest 391 450 28,500 -3,000 Descending Houston Center
04:14PM 30.6561 -93.8553 223° Southwest 403 464 25,500 -3,000 Descending Houston Center
04:15PM 30.5733 -93.9450 224° Southwest 409 471 22,500 -3,240 Descending Houston Center
04:15PM 30.5139 -94.0114 224° Southwest 410 472 20,300 -3,180 Descending Houston Center
04:17PM 30.3967 -94.1433 224° Southwest 374 430 15,700 -2,880 Descending Houston Center
04:18PM 30.3392 -94.2069 224° Southwest 386 444 13,600 -2,100 Descending Houston Center
04:19PM 30.2686 -94.2844 225° Southwest 376 433 11,900 -900 Descending Houston Center
04:20PM 30.2089 -94.3528 241° Southwest 341 392 11,900 -300 Level Houston Center
04:21PM 30.1719 -94.4311 248° West 314 361 11,300 -900 Descending Houston Center
04:22PM 30.1386 -94.5261 246° West 259 298 10,000 -1,140 Descending Houston Center
04:23PM 30.1142 -94.5903 247° West 266 306 9,100 -1,020 Descending Houston Center
04:24PM 30.0875 -94.6639 247° West 256 295 8,100 -720 Descending Houston Center
04:25PM 30.0611 -94.7350 246° West 251 289 7,700 -780 Descending Houston Center
04:26PM 30.0322 -94.8111 248° West 251 289 6,600 -900 Descending Houston Center
04:27PM 30.0053 -94.8869 260° West 251 289 6,000 -600 Descending Houston Center
04:28PM 29.9931 -94.9633 272° West 251 289 5,400 -600 Descending Houston Center
04:29PM 29.9953 -95.0400 268° West 239 275 4,900 -900 Descending Houston Center
04:30PM 29.9933 -95.1167 268° West 239 275 3,700 -1,200 Descending Houston Center